Time;durP1;ratioP1;P1;durP2;ratioP2;P2;SDS_P1;SDS_P2;PMS_P1;PMS_P2;Temp;Humidity;BMP_temperature;BMP_pressure;BME280_temperature;BME280_humidity;BME280_pressure;Samples;Min_cycle;Max_cycle;Signal;HPM_P1;HPM_P2
2020/12/29 00:02:24;;;;;;;30.58;22.40;;;2.40;99.90;;;;;;5034463;28;20212;-84
2020/12/29 00:04:51;;;;;;;29.55;22.33;;;2.30;99.90;;;;;;5027948;28;20320;-82
2020/12/29 00:07:17;;;;;;;30.33;22.55;;;2.40;99.90;;;;;;5033603;28;20184;-82
2020/12/29 00:09:44;;;;;;;30.48;23.20;;;2.40;99.90;;;;;;5029596;28;20244;-84
2020/12/29 00:12:11;;;;;;;31.70;23.58;;;2.40;99.90;;;;;;5035751;28;20236;-81
2020/12/29 00:14:37;;;;;;;36.92;24.10;;;2.40;99.90;;;;;;5035968;28;20262;-83
2020/12/29 00:17:03;;;;;;;30.33;22.35;;;2.40;99.90;;;;;;5034798;28;20296;-80
2020/12/29 00:19:30;;;;;;;34.28;24.88;;;2.50;99.90;;;;;;5029953;28;20209;-84
2020/12/29 00:21:58;;;;;;;35.22;24.08;;;2.50;99.90;;;;;;5024077;28;20272;-83
2020/12/29 00:24:26;;;;;;;39.20;25.17;;;2.40;99.90;;;;;;5021563;28;20236;-83
2020/12/29 00:26:53;;;;;;;36.25;23.92;;;2.40;99.90;;;;;;5021825;28;20215;-85
2020/12/29 00:29:20;;;;;;;32.63;24.05;;;2.40;99.90;;;;;;5025053;28;20215;-83
2020/12/29 00:31:46;;;;;;;32.70;23.10;;;2.30;99.90;;;;;;5032352;28;20224;-82
2020/12/29 00:34:12;;;;;;;35.15;25.52;;;2.30;99.90;;;;;;5029632;28;20316;-84
2020/12/29 00:36:39;;;;;;;35.08;23.80;;;2.30;99.90;;;;;;5026256;28;20265;-84
2020/12/29 00:39:05;;;;;;;36.75;25.65;;;2.30;99.90;;;;;;5024215;28;20268;-84
2020/12/29 00:41:33;;;;;;;28.45;20.85;;;2.20;99.90;;;;;;5021487;28;20291;-84
2020/12/29 00:44:00;;;;;;;31.40;22.90;;;2.20;99.90;;;;;;5020498;28;20720;-84
2020/12/29 00:46:26;;;;;;;34.33;23.42;;;2.20;99.90;;;;;;5021079;28;20305;-85
2020/12/29 00:48:52;;;;;;;34.00;23.50;;;2.20;99.90;;;;;;5021666;28;20632;-84
2020/12/29 00:51:21;;;;;;;37.97;23.60;;;2.20;99.90;;;;;;5021775;28;20267;-85
2020/12/29 00:53:48;;;;;;;31.25;21.45;;;2.20;99.90;;;;;;5025594;28;20311;-84
2020/12/29 00:56:14;;;;;;;32.33;22.52;;;2.20;99.90;;;;;;5033253;28;20267;-83
2020/12/29 00:58:41;;;;;;;33.58;22.50;;;2.20;99.90;;;;;;5037573;28;20223;-84
2020/12/29 01:01:09;;;;;;;38.00;25.77;;;2.10;99.90;;;;;;5026768;28;20524;-85
2020/12/29 01:03:38;;;;;;;35.47;25.05;;;2.20;99.90;;;;;;5023583;28;20284;-84
2020/12/29 01:06:04;;;;;;;41.75;23.73;;;2.30;99.90;;;;;;5023499;28;20681;-84
2020/12/29 01:08:31;;;;;;;39.95;25.08;;;2.30;99.90;;;;;;5021538;28;20274;-84
2020/12/29 01:10:59;;;;;;;36.78;24.85;;;2.30;99.90;;;;;;5020895;28;20220;-84
2020/12/29 01:13:25;;;;;;;33.85;23.70;;;2.30;99.90;;;;;;5021260;28;20224;-85
2020/12/29 01:15:53;;;;;;;35.67;24.25;;;2.40;99.90;;;;;;5021412;28;20255;-84
2020/12/29 01:18:20;;;;;;;37.13;25.55;;;2.30;99.90;;;;;;5021448;28;20271;-84
2020/12/29 01:20:48;;;;;;;32.45;25.10;;;2.30;99.90;;;;;;5021403;28;20695;-84
2020/12/29 01:23:14;;;;;;;33.72;23.95;;;2.30;99.90;;;;;;5021464;28;20732;-84
2020/12/29 01:25:41;;;;;;;36.40;24.42;;;2.30;99.90;;;;;;5021879;28;20192;-84
2020/12/29 01:28:09;;;;;;;36.53;25.67;;;2.30;99.90;;;;;;5022972;28;20232;-85
2020/12/29 01:30:35;;;;;;;41.58;25.50;;;2.30;99.90;;;;;;5020621;28;20228;-84
2020/12/29 01:33:01;;;;;;;38.35;25.35;;;2.30;99.90;;;;;;5021692;28;20208;-85
2020/12/29 01:35:28;;;;;;;34.83;25.42;;;2.40;99.90;;;;;;5021716;28;20661;-84
2020/12/29 01:37:55;;;;;;;35.97;24.45;;;2.40;99.90;;;;;;5021208;28;20346;-84
2020/12/29 01:40:21;;;;;;;31.95;24.15;;;2.40;99.90;;;;;;5024293;28;20295;-83
2020/12/29 01:42:47;;;;;;;35.38;24.05;;;2.30;99.90;;;;;;5025160;28;20699;-84
2020/12/29 01:45:16;;;;;;;39.00;25.48;;;2.30;99.90;;;;;;5023764;28;20259;-83
2020/12/29 01:47:43;;;;;;;38.90;24.65;;;2.30;99.90;;;;;;5024544;28;20239;-82
2020/12/29 01:50:11;;;;;;;35.35;23.83;;;2.30;99.90;;;;;;5024087;28;20208;-84
2020/12/29 01:52:39;;;;;;;36.75;25.67;;;2.30;99.90;;;;;;5027248;28;20278;-84
2020/12/29 01:55:06;;;;;;;42.80;25.50;;;2.30;99.90;;;;;;5033238;28;20234;-86
2020/12/29 01:57:33;;;;;;;34.25;24.70;;;2.40;99.90;;;;;;5035557;28;20204;-85
2020/12/29 02:00:00;;;;;;;36.47;24.30;;;2.30;99.90;;;;;;5037735;28;20205;-85
2020/12/29 02:02:27;;;;;;;36.55;25.17;;;2.30;99.90;;;;;;5038868;28;20219;-84
2020/12/29 02:04:53;;;;;;;44.08;27.15;;;2.40;99.90;;;;;;5037678;28;20287;-84
2020/12/29 02:07:20;;;;;;;38.97;24.33;;;2.40;99.90;;;;;;5038473;28;20205;-84
2020/12/29 02:09:49;;;;;;;34.40;24.30;;;2.40;99.90;;;;;;5034080;28;20263;-86
2020/12/29 02:12:27;;;;;;;34.78;23.77;;;2.50;99.90;;;;;;5030652;28;20840;-86
2020/12/29 02:14:54;;;;;;;38.08;24.45;;;2.50;99.90;;;;;;5026210;28;20788;-86
2020/12/29 02:17:20;;;;;;;35.50;24.58;;;2.50;99.90;;;;;;5024149;28;20200;-86
2020/12/29 02:19:48;;;;;;;32.20;23.45;;;2.50;99.90;;;;;;5024227;28;20192;-86
2020/12/29 02:22:20;;;;;;;31.27;24.38;;;2.60;99.90;;;;;;5024020;28;20220;-86
2020/12/29 02:24:53;;;;;;;32.72;22.45;;;2.50;99.90;;;;;;5042862;22;20224;-79
2020/12/29 02:27:21;;;;;;;30.98;23.92;;;2.50;99.90;;;;;;5017303;28;20205;-79
2020/12/29 02:29:48;;;;;;;34.55;23.52;;;2.50;99.90;;;;;;5017293;28;20236;-79
2020/12/29 02:32:15;;;;;;;33.75;25.02;;;2.60;99.90;;;;;;5020024;28;20248;-78
2020/12/29 02:34:45;;;;;;;33.20;21.98;;;2.60;99.90;;;;;;5016710;28;20217;-78
2020/12/29 02:37:24;;;;;;;33.83;23.15;;;2.60;99.90;;;;;;5017229;28;20205;-78
2020/12/29 02:39:53;;;;;;;30.85;23.65;;;2.50;99.90;;;;;;5016995;28;20212;-79
2020/12/29 02:42:20;;;;;;;33.63;21.52;;;2.60;99.90;;;;;;5016989;28;20287;-79
2020/12/29 02:44:46;;;;;;;34.78;22.83;;;2.60;99.90;;;;;;5016474;28;20318;-79
2020/12/29 02:47:12;;;;;;;31.75;22.42;;;2.60;99.90;;;;;;5016995;28;20208;-79
2020/12/29 02:49:39;;;;;;;29.83;21.23;;;2.70;99.90;;;;;;5016976;28;20200;-79
2020/12/29 02:52:07;;;;;;;28.45;22.33;;;2.70;99.90;;;;;;5015551;28;20310;-78
2020/12/29 02:54:34;;;;;;;28.95;20.90;;;2.60;99.90;;;;;;5016789;28;20236;-78
2020/12/29 02:57:00;;;;;;;32.25;21.95;;;2.50;99.90;;;;;;5016743;28;20218;-78
2020/12/29 02:59:26;;;;;;;30.65;22.10;;;2.50;99.90;;;;;;5016585;28;20215;-78
2020/12/29 03:01:53;;;;;;;31.33;22.85;;;2.40;99.90;;;;;;5016420;28;20219;-78
2020/12/29 03:04:20;;;;;;;36.40;24.52;;;2.40;99.90;;;;;;5016256;28;20319;-78
2020/12/29 03:06:46;;;;;;;33.25;22.23;;;2.40;99.90;;;;;;5016394;28;20211;-78
2020/12/29 03:09:14;;;;;;;31.27;22.27;;;2.30;99.90;;;;;;5016287;28;20254;-80
2020/12/29 03:11:41;;;;;;;30.00;22.60;;;2.30;99.90;;;;;;5016763;28;20217;-79
2020/12/29 03:14:08;;;;;;;31.33;22.35;;;2.40;99.90;;;;;;5017760;28;20229;-80
2020/12/29 03:16:36;;;;;;;33.28;22.10;;;2.50;99.90;;;;;;5016172;28;20200;-78
2020/12/29 03:19:02;;;;;;;37.35;25.25;;;2.50;99.90;;;;;;5016409;28;20204;-79
2020/12/29 03:21:29;;;;;;;33.20;22.52;;;2.40;99.90;;;;;;5015957;28;20684;-78
2020/12/29 03:23:55;;;;;;;33.53;22.65;;;2.30;99.90;;;;;;5015837;28;20232;-79
2020/12/29 03:26:23;;;;;;;31.85;24.40;;;2.40;99.90;;;;;;5017320;28;20189;-80
2020/12/29 03:28:50;;;;;;;34.55;21.33;;;2.40;99.90;;;;;;5017259;28;20295;-79
2020/12/29 03:31:17;;;;;;;32.63;22.75;;;2.40;99.90;;;;;;5017758;28;20311;-79
2020/12/29 03:33:44;;;;;;;32.28;21.20;;;2.40;99.90;;;;;;5020122;28;20220;-79
2020/12/29 03:36:11;;;;;;;31.52;23.15;;;2.50;99.90;;;;;;5019092;28;20204;-78
2020/12/29 03:38:37;;;;;;;32.20;24.85;;;2.50;99.90;;;;;;5019264;28;20569;-78
2020/12/29 03:41:03;;;;;;;30.85;21.13;;;2.50;99.90;;;;;;5017958;28;20656;-79
2020/12/29 03:43:30;;;;;;;32.38;21.35;;;2.50;99.90;;;;;;5017355;28;20211;-79
2020/12/29 03:45:59;;;;;;;29.95;21.67;;;2.50;99.90;;;;;;5017308;28;20205;-80
2020/12/29 03:48:26;;;;;;;31.38;22.17;;;2.50;99.90;;;;;;5017274;28;20211;-79
2020/12/29 03:50:53;;;;;;;29.13;21.48;;;2.50;99.90;;;;;;5017085;28;20636;-80
2020/12/29 03:53:19;;;;;;;28.30;20.30;;;2.50;99.90;;;;;;5017145;28;20204;-79
2020/12/29 03:55:46;;;;;;;29.23;19.73;;;2.70;99.90;;;;;;5016822;28;20216;-79
2020/12/29 03:58:12;;;;;;;29.98;21.90;;;2.80;99.90;;;;;;5016473;28;20443;-79
2020/12/29 04:00:38;;;;;;;27.58;20.33;;;2.60;99.90;;;;;;5016067;28;20204;-79
2020/12/29 04:03:06;;;;;;;30.52;21.40;;;2.60;99.90;;;;;;5016628;28;20967;-80
2020/12/29 04:05:34;;;;;;;29.55;19.48;;;2.70;99.90;;;;;;5017090;28;20630;-80
2020/12/29 04:08:00;;;;;;;31.80;21.95;;;2.60;99.90;;;;;;5016859;28;20205;-79
2020/12/29 04:10:26;;;;;;;30.27;21.40;;;2.60;99.90;;;;;;5016195;28;20209;-80
2020/12/29 04:12:53;;;;;;;34.85;19.23;;;2.60;99.90;;;;;;5015806;28;20739;-79
2020/12/29 04:15:19;;;;;;;30.08;20.83;;;2.70;99.90;;;;;;5016062;28;20224;-80
2020/12/29 04:17:46;;;;;;;30.65;21.88;;;2.60;99.90;;;;;;5015912;28;20204;-80
2020/12/29 04:20:14;;;;;;;29.48;21.10;;;2.80;99.90;;;;;;5016835;28;20208;-80
2020/12/29 04:22:42;;;;;;;29.55;22.63;;;2.60;99.90;;;;;;5015142;28;20834;-80
2020/12/29 04:25:10;;;;;;;30.30;23.27;;;2.70;99.90;;;;;;5016624;28;20455;-79
2020/12/29 04:27:37;;;;;;;26.35;21.52;;;2.70;99.90;;;;;;5017002;28;20205;-79
2020/12/29 04:30:04;;;;;;;25.98;19.98;;;2.70;99.90;;;;;;5016854;28;20720;-80
2020/12/29 04:32:30;;;;;;;28.65;21.23;;;2.60;99.90;;;;;;5017366;28;20235;-79
2020/12/29 04:34:57;;;;;;;28.40;20.55;;;2.60;99.90;;;;;;5017269;28;20225;-79
2020/12/29 04:37:24;;;;;;;32.67;20.70;;;2.50;99.90;;;;;;5016492;28;20299;-79
2020/12/29 04:39:50;;;;;;;24.83;20.45;;;2.60;99.90;;;;;;5015476;28;20294;-80
2020/12/29 04:42:17;;;;;;;29.13;21.33;;;2.50;99.90;;;;;;5014756;28;20683;-79
2020/12/29 04:44:44;;;;;;;27.52;21.45;;;2.50;99.90;;;;;;5014026;28;20732;-80
2020/12/29 04:47:11;;;;;;;38.65;27.20;;;2.50;99.90;;;;;;5014116;28;20474;-80
2020/12/29 04:49:38;;;;;;;32.70;23.77;;;2.40;99.90;;;;;;5014559;28;20450;-79
2020/12/29 04:52:06;;;;;;;27.73;21.48;;;2.40;99.90;;;;;;5015557;28;20224;-79
2020/12/29 04:54:36;;;;;;;31.60;22.85;;;2.30;99.90;;;;;;5014507;28;20701;-80
2020/12/29 04:57:03;;;;;;;32.15;21.65;;;2.30;99.90;;;;;;5014274;28;20283;-79
2020/12/29 04:59:30;;;;;;;34.22;22.50;;;2.20;99.90;;;;;;5014632;28;20236;-79
2020/12/29 05:01:57;;;;;;;39.90;24.33;;;2.20;99.90;;;;;;5015373;28;20201;-79
2020/12/29 05:04:24;;;;;;;33.67;21.77;;;2.30;99.90;;;;;;5014639;28;20230;-79
2020/12/29 05:06:51;;;;;;;34.38;22.98;;;2.20;99.90;;;;;;5014767;28;20204;-79
2020/12/29 05:09:18;;;;;;;31.97;22.87;;;2.20;99.90;;;;;;5015669;28;20538;-79
2020/12/29 05:11:46;;;;;;;32.38;24.65;;;2.10;99.90;;;;;;5016054;28;20493;-79
2020/12/29 05:14:13;;;;;;;34.10;22.55;;;2.10;99.90;;;;;;5014627;28;20227;-79
2020/12/29 05:16:39;;;;;;;31.85;23.10;;;2.10;99.90;;;;;;5015524;28;20246;-79
2020/12/29 05:19:07;;;;;;;38.50;24.25;;;2.00;99.90;;;;;;5017700;28;20207;-79
2020/12/29 05:21:36;;;;;;;41.00;25.85;;;2.00;99.90;;;;;;5017102;28;20613;-79
2020/12/29 05:24:10;;;;;;;34.67;22.95;;;1.90;99.90;;;;;;5016622;28;20236;-80
2020/12/29 05:26:37;;;;;;;38.13;24.98;;;2.00;99.90;;;;;;5016570;28;20207;-80
2020/12/29 05:29:06;;;;;;;43.88;29.40;;;2.00;99.90;;;;;;5015680;28;20445;-79
2020/12/29 05:31:33;;;;;;;39.92;27.35;;;1.90;99.90;;;;;;5015628;28;20228;-79
2020/12/29 05:34:00;;;;;;;39.78;24.77;;;1.90;99.90;;;;;;5016768;28;20599;-80
2020/12/29 05:36:27;;;;;;;37.45;26.98;;;1.90;99.90;;;;;;5016007;28;20204;-79
2020/12/29 05:38:56;;;;;;;38.63;26.50;;;1.80;99.90;;;;;;5015349;28;20238;-80
2020/12/29 05:41:23;;;;;;;40.53;25.95;;;1.90;99.90;;;;;;5014933;28;20262;-80
2020/12/29 05:44:01;;;;;;;42.35;26.90;;;1.80;99.90;;;;;;5015806;28;20231;-80
2020/12/29 05:46:28;;;;;;;40.58;24.50;;;1.80;99.90;;;;;;5016502;28;20595;-80
2020/12/29 05:48:55;;;;;;;37.75;25.73;;;1.70;99.90;;;;;;5016007;28;20204;-79
2020/12/29 05:51:23;;;;;;;49.15;29.00;;;1.80;99.90;;;;;;5022368;28;20287;-79
2020/12/29 05:53:50;;;;;;;38.08;25.95;;;1.80;99.90;;;;;;5021841;28;20224;-80
2020/12/29 05:56:17;;;;;;;36.58;25.17;;;1.70;99.90;;;;;;5021640;28;20324;-79
2020/12/29 05:58:43;;;;;;;45.15;27.73;;;1.70;99.90;;;;;;5022117;28;20201;-78
2020/12/29 06:01:10;;;;;;;47.85;28.80;;;1.80;99.90;;;;;;5017407;28;20207;-79
2020/12/29 06:03:38;;;;;;;46.03;26.80;;;1.80;99.90;;;;;;5018863;28;20204;-80
2020/12/29 06:06:07;;;;;;;45.55;28.00;;;1.80;99.90;;;;;;5018433;28;20212;-79
2020/12/29 06:08:36;;;;;;;40.88;25.95;;;1.80;99.90;;;;;;5017420;28;20209;-79
2020/12/29 06:11:05;;;;;;;41.13;25.73;;;1.70;99.90;;;;;;5017030;28;20358;-79
2020/12/29 06:13:38;;;;;;;40.08;26.25;;;1.70;99.90;;;;;;5013927;28;20637;-80
2020/12/29 06:16:04;;;;;;;42.03;26.05;;;1.70;99.90;;;;;;5029735;28;20200;-79
2020/12/29 06:18:35;;;;;;;41.17;27.02;;;1.70;99.90;;;;;;5036434;28;20226;-79
2020/12/29 06:21:05;;;;;;;40.72;27.20;;;1.70;99.90;;;;;;5031328;28;20275;-79
2020/12/29 06:23:38;;;;;;;45.42;29.65;;;1.70;99.90;;;;;;5016011;28;20572;-79
2020/12/29 06:26:08;;;;;;;43.45;28.67;;;1.60;99.90;;;;;;5016551;28;20545;-79
2020/12/29 06:28:47;;;;;;;44.83;27.75;;;1.50;99.90;;;;;;5019052;28;20208;-79
2020/12/29 06:31:21;;;;;;;40.42;26.48;;;1.50;99.90;;;;;;5018764;28;20266;-80
2020/12/29 06:33:49;;;;;;;44.72;26.08;;;1.50;99.90;;;;;;5018738;28;20224;-80
2020/12/29 06:36:18;;;;;;;44.38;27.30;;;1.50;99.90;;;;;;5018777;28;20212;-80
2020/12/29 06:38:48;;;;;;;46.20;27.95;;;1.60;99.90;;;;;;5019059;28;20262;-79
2020/12/29 06:41:15;;;;;;;46.67;26.17;;;1.60;99.90;;;;;;5018392;28;20235;-80
2020/12/29 06:43:43;;;;;;;39.05;26.38;;;1.60;99.90;;;;;;5018341;28;20224;-80
2020/12/29 06:46:11;;;;;;;44.65;28.77;;;1.60;99.90;;;;;;5018641;28;20204;-79
2020/12/29 06:48:38;;;;;;;34.65;25.45;;;1.60;99.90;;;;;;5019968;28;20263;-79
2020/12/29 06:51:09;;;;;;;42.65;26.73;;;1.50;99.90;;;;;;5020063;28;20224;-80
2020/12/29 06:53:38;;;;;;;38.92;26.30;;;1.40;99.90;;;;;;5020695;28;20255;-79
2020/12/29 06:56:04;;;;;;;38.72;24.92;;;1.40;99.90;;;;;;5021200;28;20204;-79
2020/12/29 06:58:32;;;;;;;42.45;25.58;;;1.40;99.90;;;;;;5021081;28;20291;-79
2020/12/29 07:01:20;;;;;;;44.83;27.98;;;1.60;99.90;;;;;;5018437;28;20215;-80
2020/12/29 07:03:46;;;;;;;36.22;24.80;;;1.50;99.90;;;;;;5020400;28;20229;-78
2020/12/29 07:06:13;;;;;;;40.03;24.92;;;1.60;99.90;;;;;;5018648;28;20224;-79
2020/12/29 07:08:40;;;;;;;35.72;26.48;;;1.50;99.90;;;;;;5018996;28;20215;-81
2020/12/29 07:11:16;;;;;;;35.80;24.30;;;1.50;99.90;;;;;;5018261;28;20226;-79
2020/12/29 07:13:46;;;;;;;42.70;29.52;;;1.50;99.90;;;;;;5017937;28;20227;-81
2020/12/29 07:16:13;;;;;;;41.88;27.58;;;1.50;99.90;;;;;;5017807;28;20574;-80
2020/12/29 07:18:43;;;;;;;45.22;26.55;;;1.50;99.90;;;;;;5017299;28;20215;-79
2020/12/29 07:21:23;;;;;;;41.50;26.05;;;1.50;99.90;;;;;;5017720;28;20189;-81
2020/12/29 07:23:52;;;;;;;42.72;25.90;;;1.40;99.90;;;;;;5017238;28;20240;-80
2020/12/29 07:26:20;;;;;;;44.28;27.55;;;1.30;99.90;;;;;;5017500;28;20295;-80
2020/12/29 07:28:50;;;;;;;40.75;27.13;;;1.30;99.90;;;;;;5017228;28;20209;-80
2020/12/29 07:31:16;;;;;;;43.05;26.33;;;1.30;99.90;;;;;;5017609;28;20256;-80
2020/12/29 07:33:49;;;;;;;42.03;27.42;;;1.40;99.90;;;;;;5017484;28;20259;-79
2020/12/29 07:36:18;;;;;;;38.35;25.50;;;1.50;99.90;;;;;;5017691;28;20672;-81
2020/12/29 07:38:47;;;;;;;38.60;24.83;;;1.40;99.90;;;;;;5020327;28;20205;-80
2020/12/29 07:41:16;;;;;;;39.65;26.77;;;1.40;99.90;;;;;;5023113;28;20291;-80
2020/12/29 07:43:43;;;;;;;35.95;25.30;;;1.50;99.90;;;;;;5016637;28;20228;-80
2020/12/29 07:46:10;;;;;;;41.38;27.48;;;1.40;99.90;;;;;;5017417;28;20207;-80
2020/12/29 07:48:37;;;;;;;41.55;26.67;;;1.50;99.90;;;;;;5017475;28;20677;-80
2020/12/29 07:51:04;;;;;;;37.60;25.67;;;1.40;99.90;;;;;;5017216;28;20311;-80
2020/12/29 07:53:30;;;;;;;35.92;25.17;;;1.50;99.90;;;;;;5017521;28;20208;-81
2020/12/29 07:55:57;;;;;;;36.60;25.27;;;1.50;99.90;;;;;;5017695;28;20215;-80
2020/12/29 07:58:25;;;;;;;40.50;25.02;;;1.40;99.90;;;;;;5017901;28;20566;-81
2020/12/29 08:00:52;;;;;;;37.85;23.50;;;1.40;99.90;;;;;;5019390;28;20287;-80
2020/12/29 08:03:18;;;;;;;34.05;24.02;;;1.30;99.90;;;;;;5019051;28;20572;-80
2020/12/29 08:05:45;;;;;;;41.38;25.35;;;1.40;99.90;;;;;;5017791;28;20229;-80
2020/12/29 08:08:13;;;;;;;42.40;25.20;;;1.50;99.90;;;;;;5017132;28;20230;-80
2020/12/29 08:10:41;;;;;;;37.88;24.83;;;1.50;99.90;;;;;;5017603;28;20699;-81
2020/12/29 08:13:09;;;;;;;35.50;24.75;;;1.30;99.90;;;;;;5017400;28;20210;-80
2020/12/29 08:15:37;;;;;;;36.65;21.83;;;1.30;99.90;;;;;;5017830;28;20719;-80
2020/12/29 08:18:05;;;;;;;40.30;25.45;;;1.20;99.90;;;;;;5017875;28;20227;-79
2020/12/29 08:20:32;;;;;;;43.63;23.73;;;1.20;99.90;;;;;;5019794;28;20206;-80
2020/12/29 08:23:03;;;;;;;37.28;23.98;;;1.20;99.90;;;;;;5017662;28;20239;-80
2020/12/29 08:25:30;;;;;;;38.70;25.05;;;1.20;99.90;;;;;;5043130;22;20228;-86
2020/12/29 08:27:59;;;;;;;48.20;24.90;;;1.20;99.90;;;;;;5022315;28;20200;-87
2020/12/29 08:30:26;;;;;;;38.55;23.83;;;1.20;99.90;;;;;;5022252;28;20237;-86
2020/12/29 08:32:56;;;;;;;39.58;25.27;;;1.30;99.90;;;;;;5022239;28;20723;-87
2020/12/29 08:35:23;;;;;;;34.42;22.73;;;1.50;99.90;;;;;;5022166;28;20230;-87
2020/12/29 08:37:59;;;;;;;34.17;23.67;;;1.50;99.90;;;;;;5021286;28;20263;-86
2020/12/29 08:40:30;;;;;;;34.42;21.63;;;1.50;99.90;;;;;;5021355;28;20692;-86
2020/12/29 08:43:00;;;;;;;33.95;23.05;;;1.50;99.90;;;;;;5021194;28;20191;-87
2020/12/29 08:45:27;;;;;;;39.20;21.80;;;1.60;99.90;;;;;;5025161;28;20224;-87
2020/12/29 08:47:56;;;;;;;33.90;21.85;;;1.60;99.90;;;;;;5029774;28;20204;-87
2020/12/29 08:50:24;;;;;;;33.47;22.10;;;1.60;99.90;;;;;;5029961;28;20204;-87
2020/12/29 08:52:54;;;;;;;29.13;21.73;;;1.70;99.90;;;;;;5034972;28;20254;-85
2020/12/29 08:55:30;;;;;;;37.28;21.48;;;1.70;99.90;;;;;;5036597;28;20256;-86
2020/12/29 08:57:58;;;;;;;32.47;22.27;;;1.80;99.90;;;;;;5035530;28;20227;-85
2020/12/29 09:00:25;;;;;;;34.75;22.73;;;1.70;99.90;;;;;;5034051;28;20212;-87
2020/12/29 09:02:52;;;;;;;30.58;20.33;;;1.80;99.90;;;;;;5027687;28;20205;-87
2020/12/29 09:05:24;;;;;;;27.60;19.50;;;1.80;99.90;;;;;;5023718;28;20281;-88
2020/12/29 09:07:50;;;;;;;34.13;21.30;;;1.70;99.90;;;;;;5022792;28;20196;-87
2020/12/29 09:10:17;;;;;;;33.65;19.95;;;1.60;99.90;;;;;;5024379;28;20246;-87
2020/12/29 09:12:44;;;;;;;27.50;21.38;;;1.70;99.90;;;;;;5022005;28;20715;-87
2020/12/29 09:15:11;;;;;;;27.52;20.77;;;1.90;99.90;;;;;;5021709;28;20318;-86
2020/12/29 09:17:42;;;;;;;29.83;21.80;;;2.00;99.90;;;;;;5021350;28;20247;-84
2020/12/29 09:20:17;;;;;;;28.75;19.05;;;2.10;99.90;;;;;;5021941;28;20279;-87
2020/12/29 09:23:01;;;;;;;26.40;18.00;;;2.20;99.90;;;;;;5021220;28;20211;-87
2020/12/29 09:25:30;;;;;;;30.67;20.05;;;2.20;99.90;;;;;;5021040;28;20238;-87
2020/12/29 09:28:11;;;;;;;33.63;18.13;;;2.20;99.90;;;;;;5022067;28;20204;-87
2020/12/29 09:30:38;;;;;;;27.48;19.45;;;2.30;99.90;;;;;;5021410;28;20227;-88
2020/12/29 09:33:04;;;;;;;24.05;16.98;;;2.20;99.90;;;;;;5021067;28;20291;-88
2020/12/29 09:35:31;;;;;;;24.42;18.40;;;2.20;99.90;;;;;;5021033;28;20716;-87
2020/12/29 09:38:00;;;;;;;26.20;18.13;;;2.30;99.90;;;;;;5026156;28;20243;-86
2020/12/29 09:40:27;;;;;;;29.52;17.85;;;2.30;99.90;;;;;;5030392;28;20208;-87
2020/12/29 09:42:54;;;;;;;22.30;17.55;;;2.30;99.90;;;;;;5025490;28;20268;-86
2020/12/29 09:45:21;;;;;;;32.42;18.90;;;2.30;99.90;;;;;;5023623;28;20234;-87
2020/12/29 09:47:48;;;;;;;28.67;19.17;;;2.40;99.90;;;;;;5021691;28;20228;-88
2020/12/29 09:50:15;;;;;;;25.70;16.85;;;2.40;99.90;;;;;;5023601;28;20204;-87
2020/12/29 09:52:41;;;;;;;25.67;18.90;;;2.40;99.90;;;;;;5021057;28;20223;-87
2020/12/29 09:55:09;;;;;;;26.95;17.90;;;2.40;99.90;;;;;;5020910;28;20224;-87
2020/12/29 09:57:35;;;;;;;25.58;18.05;;;2.30;99.90;;;;;;5021646;28;20208;-87
2020/12/29 10:00:02;;;;;;;25.90;19.65;;;2.30;99.90;;;;;;5022829;28;20236;-87
2020/12/29 10:02:28;;;;;;;25.80;17.63;;;2.40;99.90;;;;;;5026011;28;20688;-86
2020/12/29 10:04:55;;;;;;;21.00;16.27;;;2.40;99.90;;;;;;5036676;28;20274;-86
2020/12/29 10:07:21;;;;;;;22.35;17.35;;;2.40;99.90;;;;;;5029223;28;20287;-86
2020/12/29 10:09:47;;;;;;;25.35;17.60;;;2.40;99.90;;;;;;5025836;28;20315;-86
2020/12/29 10:12:15;;;;;;;21.40;15.43;;;2.50;99.90;;;;;;5031115;28;20267;-87
2020/12/29 10:14:41;;;;;;;21.67;16.10;;;2.60;99.90;;;;;;5038752;28;20235;-87
2020/12/29 10:17:08;;;;;;;24.05;17.42;;;2.60;99.90;;;;;;5027252;28;20254;-87
2020/12/29 10:19:34;;;;;;;24.10;17.35;;;2.70;99.90;;;;;;5025771;28;20272;-87
2020/12/29 10:22:00;;;;;;;23.85;17.38;;;2.60;99.90;;;;;;5028399;28;20239;-87
2020/12/29 10:24:29;;;;;;;23.25;16.70;;;2.80;99.90;;;;;;5036792;28;20239;-86
2020/12/29 10:26:56;;;;;;;26.25;17.48;;;3.00;99.90;;;;;;5037282;28;20200;-87
2020/12/29 10:29:23;;;;;;;27.33;17.83;;;3.10;99.90;;;;;;5033464;28;20299;-86
2020/12/29 10:31:50;;;;;;;25.00;16.42;;;3.10;99.90;;;;;;5026516;28;20301;-87
2020/12/29 10:34:17;;;;;;;18.02;14.57;;;3.10;99.90;;;;;;5024428;28;20251;-85
2020/12/29 10:36:45;;;;;;;21.48;15.05;;;3.20;99.90;;;;;;5023085;28;20247;-88
2020/12/29 10:39:12;;;;;;;21.10;15.05;;;3.30;99.90;;;;;;5024631;28;20251;-86
2020/12/29 10:41:40;;;;;;;20.25;16.77;;;3.30;99.90;;;;;;5024181;28;20264;-87
2020/12/29 10:44:08;;;;;;;18.17;15.13;;;3.30;99.90;;;;;;5023907;28;20361;-87
2020/12/29 10:46:36;;;;;;;18.92;14.45;;;3.30;99.90;;;;;;5024207;28;20230;-87
2020/12/29 10:49:03;;;;;;;20.70;15.05;;;3.50;99.90;;;;;;5023150;28;20272;-87
2020/12/29 10:51:29;;;;;;;18.13;14.05;;;3.60;99.90;;;;;;5022379;28;20220;-87
2020/12/29 10:53:55;;;;;;;17.75;13.23;;;3.50;99.90;;;;;;5023289;28;20204;-88
2020/12/29 10:56:22;;;;;;;16.65;12.40;;;3.60;99.90;;;;;;5023056;28;20205;-88
2020/12/29 10:58:49;;;;;;;19.58;13.18;;;3.70;99.90;;;;;;5023486;28;20208;-87
2020/12/29 11:01:20;;;;;;;20.08;13.35;;;3.80;99.90;;;;;;5022484;28;20633;-87
2020/12/29 11:03:48;;;;;;;18.25;12.60;;;3.70;99.90;;;;;;5024362;28;20546;-87
2020/12/29 11:06:15;;;;;;;16.05;12.68;;;3.70;99.90;;;;;;5027983;28;20262;-86
2020/12/29 11:08:42;;;;;;;17.40;12.80;;;3.80;99.90;;;;;;5030750;28;20622;-86
2020/12/29 11:11:08;;;;;;;18.70;11.85;;;3.90;99.90;;;;;;5029252;28;20236;-87
2020/12/29 11:13:35;;;;;;;15.45;11.63;;;3.90;99.90;;;;;;5023837;28;20271;-87
2020/12/29 11:16:01;;;;;;;18.20;14.40;;;4.00;99.90;;;;;;5023841;28;20236;-87
2020/12/29 11:18:28;;;;;;;16.58;12.82;;;4.00;99.90;;;;;;5023101;28;20208;-87
2020/12/29 11:20:55;;;;;;;14.68;12.10;;;4.00;99.90;;;;;;5023460;28;20267;-87
2020/12/29 11:23:22;;;;;;;16.25;11.88;;;4.10;99.90;;;;;;5024151;28;20215;-87
2020/12/29 11:25:49;;;;;;;15.75;12.52;;;4.20;99.90;;;;;;5023079;28;20232;-87
2020/12/29 11:28:15;;;;;;;16.10;12.52;;;4.30;99.90;;;;;;5034306;28;20200;-85
2020/12/29 11:30:43;;;;;;;16.98;13.18;;;4.30;99.90;;;;;;5037437;28;20251;-85
2020/12/29 11:33:09;;;;;;;13.55;10.70;;;4.20;99.90;;;;;;5036645;28;20284;-85
2020/12/29 11:35:36;;;;;;;14.80;10.63;;;4.20;99.90;;;;;;5036353;28;20287;-85
2020/12/29 11:38:03;;;;;;;14.15;11.45;;;4.30;99.90;;;;;;5025095;28;20617;-87
2020/12/29 11:40:29;;;;;;;17.00;10.50;;;4.30;99.90;;;;;;5022391;28;20335;-85
2020/12/29 11:42:55;;;;;;;15.05;10.70;;;4.30;99.90;;;;;;5021561;28;20753;-88
2020/12/29 11:45:23;;;;;;;14.75;11.23;;;4.30;99.90;;;;;;5021295;28;20310;-86
2020/12/29 11:47:49;;;;;;;11.90;10.60;;;4.40;99.90;;;;;;5021955;28;20208;-87
2020/12/29 11:50:16;;;;;;;16.52;11.60;;;4.30;99.90;;;;;;5020581;28;20784;-86
2020/12/29 11:52:43;;;;;;;16.13;12.35;;;4.40;99.90;;;;;;5021045;28;20216;-86
2020/12/29 11:55:11;;;;;;;11.35;10.18;;;4.40;99.90;;;;;;5020675;28;20228;-86
2020/12/29 11:57:38;;;;;;;11.27;9.80;;;4.30;99.90;;;;;;5021113;28;20216;-85
2020/12/29 12:00:07;;;;;;;12.07;9.50;;;4.40;99.90;;;;;;5022401;28;20307;-87
2020/12/29 12:02:34;;;;;;;14.38;10.48;;;4.30;99.90;;;;;;5031999;28;20214;-87
2020/12/29 12:05:00;;;;;;;12.18;10.40;;;4.40;99.90;;;;;;5031680;28;20220;-87
2020/12/29 12:07:27;;;;;;;15.40;11.30;;;4.30;99.90;;;;;;5032232;28;20687;-87
2020/12/29 12:09:54;;;;;;;12.93;9.82;;;4.40;99.90;;;;;;5033720;28;20273;-87
2020/12/29 12:12:21;;;;;;;15.52;10.68;;;4.50;99.90;;;;;;5035943;28;20287;-86
2020/12/29 12:14:47;;;;;;;14.48;10.85;;;4.50;99.90;;;;;;5036135;28;20236;-86
2020/12/29 12:17:14;;;;;;;12.13;10.90;;;4.40;99.90;;;;;;5032857;28;20262;-87
2020/12/29 12:19:40;;;;;;;13.35;10.60;;;4.40;99.90;;;;;;5026360;28;20291;-87
2020/12/29 12:22:06;;;;;;;12.68;10.27;;;4.40;99.90;;;;;;5023007;28;20220;-85
2020/12/29 12:24:33;;;;;;;13.65;10.60;;;4.30;99.90;;;;;;5023193;28;20314;-88
2020/12/29 12:26:59;;;;;;;17.13;10.98;;;4.50;99.90;;;;;;5023380;28;20204;-87
2020/12/29 12:29:26;;;;;;;11.13;9.93;;;4.60;99.90;;;;;;5025352;28;20201;-86
2020/12/29 12:31:52;;;;;;;13.20;9.98;;;4.70;99.90;;;;;;5026881;28;20231;-87
2020/12/29 12:34:19;;;;;;;14.35;10.52;;;4.80;99.90;;;;;;5022617;28;20224;-85
2020/12/29 12:36:45;;;;;;;13.50;10.18;;;4.80;99.90;;;;;;5023907;28;20228;-85
2020/12/29 12:39:11;;;;;;;19.15;11.55;;;4.90;99.90;;;;;;5023615;28;20228;-89
2020/12/29 12:41:38;;;;;;;11.48;8.93;;;4.90;99.90;;;;;;5028440;28;20201;-86